createdAt,value
2018-10-05T00:02:00.928Z,5.80
2018-10-05T00:04:29.271Z,5.80
2018-10-05T00:06:57.704Z,5.80
2018-10-05T00:09:26.056Z,5.80
2018-10-05T00:11:54.412Z,5.80
2018-10-05T00:14:22.756Z,5.80
2018-10-05T00:16:51.141Z,5.70
2018-10-05T00:19:19.480Z,5.70
2018-10-05T00:21:47.835Z,5.70
2018-10-05T00:24:16.204Z,5.70
2018-10-05T00:26:44.573Z,5.70
2018-10-05T00:29:12.893Z,5.70
2018-10-05T00:31:41.232Z,5.70
2018-10-05T00:34:09.544Z,5.60
2018-10-05T00:36:37.916Z,5.50
2018-10-05T00:39:08.000Z,5.40
2018-10-05T00:41:36.352Z,5.40
2018-10-05T00:44:04.696Z,5.40
2018-10-05T00:46:33.072Z,5.40
2018-10-05T00:49:01.448Z,5.40
2018-10-05T00:51:29.818Z,5.40
2018-10-05T00:53:58.185Z,5.40
2018-10-05T00:56:26.569Z,5.40
2018-10-05T00:58:54.883Z,5.40
2018-10-05T01:01:23.213Z,5.40
2018-10-05T01:03:51.560Z,5.40
2018-10-05T01:06:19.884Z,5.40
2018-10-05T01:08:48.231Z,5.40
2018-10-05T01:11:16.567Z,5.40
2018-10-05T01:13:45.014Z,5.40
2018-10-05T01:16:13.336Z,5.40
2018-10-05T01:18:41.695Z,5.30
2018-10-05T01:21:10.042Z,5.30
2018-10-05T01:23:38.407Z,5.20
2018-10-05T01:26:06.806Z,5.10
2018-10-05T01:28:35.163Z,5.10
2018-10-05T01:31:03.493Z,5.10
2018-10-05T01:33:31.876Z,5.10
2018-10-05T01:36:00.440Z,5.10
2018-10-05T01:38:28.804Z,5.10
2018-10-05T01:40:57.142Z,5.00
2018-10-05T01:43:25.518Z,5.00
2018-10-05T01:45:53.848Z,5.00
2018-10-05T01:48:22.221Z,5.00
2018-10-05T01:50:50.552Z,5.10
2018-10-05T01:53:18.924Z,5.10
2018-10-05T01:55:47.280Z,5.00
2018-10-05T01:58:15.645Z,4.90
2018-10-05T02:00:44.000Z,4.90
2018-10-05T02:03:12.373Z,4.80
2018-10-05T02:05:40.700Z,4.80
2018-10-05T02:08:09.093Z,4.80
2018-10-05T02:10:37.426Z,4.80
2018-10-05T02:13:05.809Z,4.80
2018-10-05T02:15:34.136Z,4.80
2018-10-05T02:18:02.524Z,4.80
2018-10-05T02:20:30.868Z,4.80
2018-10-05T02:22:59.240Z,4.80
2018-10-05T02:25:27.588Z,4.80
2018-10-05T02:27:55.972Z,4.70
2018-10-05T02:30:24.304Z,4.70
2018-10-05T02:32:52.721Z,4.60
2018-10-05T02:35:21.091Z,4.50
2018-10-05T02:37:49.466Z,4.50
2018-10-05T02:40:17.804Z,4.40
2018-10-05T02:42:46.185Z,4.40
2018-10-05T02:45:14.520Z,4.40
2018-10-05T02:47:42.889Z,4.30
2018-10-05T02:50:11.236Z,4.30
2018-10-05T02:52:39.605Z,4.30
2018-10-05T02:55:07.987Z,4.30
2018-10-05T02:57:36.364Z,4.30
2018-10-05T03:00:09.249Z,4.30
2018-10-05T03:02:37.576Z,4.30
2018-10-05T03:05:05.956Z,4.30
2018-10-05T03:07:34.293Z,4.30
2018-10-05T03:10:02.732Z,4.30
2018-10-05T03:12:31.082Z,4.30
2018-10-05T03:14:59.461Z,4.30
2018-10-05T03:17:27.793Z,4.30
2018-10-05T03:19:56.215Z,4.30
2018-10-05T03:22:24.525Z,4.30
2018-10-05T03:24:52.923Z,4.30
2018-10-05T03:27:21.329Z,4.30
2018-10-05T03:29:49.701Z,4.30
2018-10-05T03:32:18.048Z,4.20
2018-10-05T03:34:46.411Z,4.20
2018-10-05T03:37:14.757Z,4.20
2018-10-05T03:39:43.121Z,4.10
2018-10-05T03:42:11.449Z,4.10
2018-10-05T03:44:39.813Z,4.10
2018-10-05T03:47:08.143Z,4.10
2018-10-05T03:49:36.509Z,4.10
2018-10-05T03:52:04.837Z,4.10
2018-10-05T03:54:33.204Z,4.10
2018-10-05T03:57:01.545Z,4.10
2018-10-05T03:59:29.917Z,4.10
2018-10-05T04:01:58.338Z,4.10
2018-10-05T04:04:26.687Z,4.10
2018-10-05T04:06:55.047Z,4.10
2018-10-05T04:09:23.492Z,4.10
2018-10-05T04:11:51.829Z,4.10
2018-10-05T04:14:20.213Z,4.20
2018-10-05T04:16:48.603Z,4.20
2018-10-05T04:19:17.017Z,4.20
2018-10-05T04:21:45.382Z,4.30
2018-10-05T04:24:14.821Z,4.30
2018-10-05T04:26:43.174Z,4.30
2018-10-05T04:29:11.544Z,4.40
2018-10-05T04:31:39.877Z,4.40
2018-10-05T04:34:08.257Z,4.40
2018-10-05T04:36:38.624Z,4.40
2018-10-05T04:39:07.573Z,4.40
2018-10-05T04:41:36.372Z,4.40
2018-10-05T04:44:05.633Z,4.40
2018-10-05T04:46:33.956Z,4.40
2018-10-05T04:49:02.372Z,4.40
2018-10-05T04:51:30.718Z,4.40
2018-10-05T04:53:59.100Z,4.40
2018-10-05T04:56:27.533Z,4.50
2018-10-05T04:58:55.844Z,4.50
2018-10-05T05:01:24.197Z,4.40
2018-10-05T05:03:52.528Z,4.40
2018-10-05T05:06:20.912Z,4.40
2018-10-05T05:08:49.249Z,4.40
2018-10-05T05:11:17.624Z,4.40
2018-10-05T05:13:45.969Z,4.20
2018-10-05T05:16:14.353Z,4.20
2018-10-05T05:18:42.694Z,4.20
2018-10-05T05:21:12.713Z,4.10
2018-10-05T05:23:41.330Z,4.10
2018-10-05T05:26:09.705Z,4.10
2018-10-05T05:28:38.038Z,4.20
2018-10-05T05:31:06.518Z,4.10
2018-10-05T05:33:34.914Z,4.10
2018-10-05T05:36:03.267Z,4.00
2018-10-05T05:38:31.613Z,4.10
2018-10-05T05:41:00.028Z,4.10
2018-10-05T05:43:28.368Z,4.10
2018-10-05T05:45:56.749Z,4.10
2018-10-05T05:48:25.090Z,4.10
2018-10-05T05:50:53.455Z,4.10
2018-10-05T05:53:21.808Z,4.00
2018-10-05T05:55:50.260Z,4.00
2018-10-05T05:58:18.625Z,4.00
2018-10-05T06:00:47.016Z,4.00
2018-10-05T06:03:15.353Z,4.10
2018-10-05T06:05:43.728Z,4.10
2018-10-05T06:08:12.074Z,4.10
2018-10-05T06:10:40.456Z,4.20
2018-10-05T06:13:08.825Z,4.20
2018-10-05T06:15:37.185Z,4.30
2018-10-05T06:18:05.569Z,4.40
2018-10-05T06:20:34.009Z,4.50
2018-10-05T06:23:02.358Z,4.70
2018-10-05T06:25:30.712Z,4.90
2018-10-05T06:27:59.043Z,5.00
2018-10-05T06:30:27.496Z,5.10
2018-10-05T06:32:55.856Z,5.20
2018-10-05T06:35:24.221Z,5.20
2018-10-05T06:37:52.654Z,5.20
2018-10-05T06:40:21.019Z,5.30
2018-10-05T06:42:49.393Z,5.40
2018-10-05T06:45:18.039Z,5.60
2018-10-05T06:47:46.363Z,5.70
2018-10-05T06:50:14.716Z,5.80
2018-10-05T06:52:43.027Z,5.80
2018-10-05T06:55:11.392Z,5.90
2018-10-05T06:57:39.737Z,6.10
2018-10-05T07:00:08.154Z,6.20
2018-10-05T07:02:36.487Z,6.40
2018-10-05T07:05:04.897Z,6.50
2018-10-05T07:07:33.337Z,6.70
2018-10-05T07:10:01.630Z,6.80
2018-10-05T07:12:29.991Z,6.90
2018-10-05T07:14:58.364Z,7.00
2018-10-05T07:17:26.738Z,7.10
2018-10-05T07:19:55.056Z,7.20
2018-10-05T07:22:23.482Z,7.30
2018-10-05T07:24:51.740Z,7.40
2018-10-05T07:27:20.138Z,7.60
2018-10-05T07:29:48.465Z,7.80
2018-10-05T07:32:16.913Z,7.90
2018-10-05T07:34:45.268Z,8.00
2018-10-05T07:37:13.649Z,8.00
2018-10-05T07:39:41.964Z,8.10
2018-10-05T07:42:10.316Z,8.20
2018-10-05T07:44:38.637Z,8.20
2018-10-05T07:47:07.052Z,8.30
2018-10-05T07:49:35.371Z,8.40
2018-10-05T07:52:03.920Z,8.50
2018-10-05T07:54:32.252Z,8.60
2018-10-05T07:57:00.650Z,8.70
2018-10-05T07:59:28.992Z,8.80
2018-10-05T08:01:57.349Z,8.90
2018-10-05T08:04:25.668Z,9.10
2018-10-05T08:06:54.063Z,9.30
2018-10-05T08:09:22.419Z,9.60
2018-10-05T08:11:50.781Z,9.70
2018-10-05T08:14:19.148Z,9.80
2018-10-05T08:16:47.508Z,9.90
2018-10-05T08:19:15.848Z,10.00
2018-10-05T08:21:44.228Z,10.10
2018-10-05T08:24:12.560Z,10.20
2018-10-05T08:26:40.939Z,10.20
2018-10-05T08:29:09.285Z,10.30
2018-10-05T08:31:37.643Z,10.40
2018-10-05T08:34:06.053Z,10.70
2018-10-05T08:36:34.369Z,10.80
2018-10-05T08:39:02.782Z,10.90
2018-10-05T08:41:31.157Z,11.00
2018-10-05T08:43:59.484Z,11.10
2018-10-05T08:46:27.848Z,11.20
2018-10-05T08:48:56.237Z,11.30
2018-10-05T08:51:24.609Z,11.40
2018-10-05T08:53:52.944Z,11.50
2018-10-05T08:56:21.281Z,11.60
2018-10-05T08:58:49.645Z,11.70
2018-10-05T09:01:17.973Z,11.70
2018-10-05T09:03:46.328Z,11.90
2018-10-05T09:06:14.656Z,11.90
2018-10-05T09:08:43.125Z,12.00
2018-10-05T09:11:11.465Z,12.10
2018-10-05T09:13:39.873Z,12.30
2018-10-05T09:16:08.214Z,12.40
2018-10-05T09:18:36.582Z,12.60
2018-10-05T09:21:05.035Z,12.70
2018-10-05T09:23:33.423Z,12.90
2018-10-05T09:26:01.776Z,13.10
2018-10-05T09:28:30.135Z,13.20
2018-10-05T09:30:58.461Z,13.40
2018-10-05T09:33:26.830Z,13.40
2018-10-05T09:35:55.166Z,13.60
2018-10-05T09:38:23.527Z,13.70
2018-10-05T09:40:51.865Z,13.80
2018-10-05T09:43:20.239Z,13.90
2018-10-05T09:45:48.588Z,14.10
2018-10-05T09:48:16.960Z,14.20
2018-10-05T09:50:45.321Z,14.30
2018-10-05T09:53:13.692Z,14.30
2018-10-05T09:55:42.044Z,14.40
2018-10-05T09:58:10.485Z,14.40
2018-10-05T10:00:44.133Z,14.50
2018-10-05T10:03:17.744Z,14.60
2018-10-05T10:05:46.089Z,14.70
2018-10-05T10:08:14.525Z,14.80
2018-10-05T10:10:42.804Z,15.00
2018-10-05T10:13:11.241Z,15.10
2018-10-05T10:15:39.577Z,15.20
2018-10-05T10:18:07.960Z,15.40
2018-10-05T10:20:36.312Z,15.40
2018-10-05T10:23:04.667Z,15.50
2018-10-05T10:25:32.991Z,15.60
2018-10-05T10:28:01.428Z,15.60
2018-10-05T10:30:29.704Z,15.60
2018-10-05T10:32:58.071Z,15.70
2018-10-05T10:35:26.413Z,15.80
2018-10-05T10:37:55.640Z,15.90
2018-10-05T10:40:23.981Z,16.00
2018-10-05T10:42:52.452Z,16.10
2018-10-05T10:45:20.789Z,16.20
2018-10-05T10:47:49.152Z,16.20
2018-10-05T10:50:17.484Z,16.30
2018-10-05T10:52:45.847Z,16.40
2018-10-05T10:55:14.191Z,16.50
2018-10-05T10:57:42.511Z,16.70
2018-10-05T11:00:10.891Z,16.80
2018-10-05T11:02:39.236Z,16.90
2018-10-05T11:05:07.631Z,16.90
2018-10-05T11:07:35.976Z,17.00
2018-10-05T11:10:04.387Z,17.10
2018-10-05T11:12:32.716Z,17.10
2018-10-05T11:15:01.133Z,17.10
2018-10-05T11:17:29.470Z,17.20
2018-10-05T11:19:57.851Z,17.20
2018-10-05T11:22:26.204Z,17.20
2018-10-05T11:24:54.584Z,17.30
2018-10-05T11:27:22.913Z,17.30
2018-10-05T11:29:51.317Z,17.40
2018-10-05T11:32:19.661Z,17.40
2018-10-05T11:34:48.053Z,17.40
2018-10-05T11:37:16.434Z,17.60
2018-10-05T11:39:44.788Z,17.60
2018-10-05T11:42:13.131Z,17.70
2018-10-05T11:44:41.489Z,17.70
2018-10-05T11:47:09.824Z,17.80
2018-10-05T11:49:38.221Z,17.90
2018-10-05T11:52:06.684Z,17.90
2018-10-05T11:54:35.058Z,18.00
2018-10-05T11:57:03.421Z,18.00
2018-10-05T11:59:31.805Z,18.10
2018-10-05T12:02:00.173Z,18.10
2018-10-05T12:04:28.545Z,18.20
2018-10-05T12:06:56.892Z,18.20
2018-10-05T12:09:25.291Z,18.30
2018-10-05T12:11:53.625Z,18.30
2018-10-05T12:14:22.023Z,18.30
2018-10-05T12:16:50.376Z,18.30
2018-10-05T12:19:18.749Z,18.30
2018-10-05T12:21:47.082Z,18.30
2018-10-05T12:24:15.460Z,18.40
2018-10-05T12:26:43.869Z,18.40
2018-10-05T12:29:12.220Z,18.40
2018-10-05T12:31:40.558Z,18.50
2018-10-05T12:34:08.936Z,18.50
2018-10-05T12:36:37.267Z,18.50
2018-10-05T12:39:07.212Z,18.50
2018-10-05T12:41:36.028Z,18.50
2018-10-05T12:44:04.448Z,18.50
2018-10-05T12:46:32.797Z,18.60
2018-10-05T12:49:01.173Z,18.60
2018-10-05T12:51:29.516Z,18.70
2018-10-05T12:53:57.884Z,18.70
2018-10-05T12:56:26.232Z,18.80
2018-10-05T12:58:54.580Z,18.80
2018-10-05T13:01:22.941Z,18.80
2018-10-05T13:03:51.291Z,18.90
2018-10-05T13:06:19.648Z,18.90
2018-10-05T13:08:48.000Z,18.90
2018-10-05T13:11:16.377Z,18.90
2018-10-05T13:13:44.740Z,18.90
2018-10-05T13:16:13.142Z,18.90
2018-10-05T13:18:41.489Z,18.90
2018-10-05T13:21:09.873Z,18.90
2018-10-05T13:23:38.201Z,19.00
2018-10-05T13:26:07.018Z,19.10
2018-10-05T13:28:35.379Z,19.10
2018-10-05T13:31:03.849Z,19.20
2018-10-05T13:33:32.229Z,19.20
2018-10-05T13:36:00.825Z,19.20
2018-10-05T13:38:29.212Z,19.30
2018-10-05T13:40:57.575Z,19.30
2018-10-05T13:43:25.928Z,19.30
2018-10-05T13:45:54.296Z,19.40
2018-10-05T13:48:22.649Z,19.40
2018-10-05T13:50:51.053Z,19.40
2018-10-05T13:53:19.400Z,19.40
2018-10-05T13:55:47.763Z,19.40
2018-10-05T13:58:16.099Z,19.40
2018-10-05T14:00:44.463Z,19.50
2018-10-05T14:03:12.803Z,19.50
2018-10-05T14:05:41.177Z,19.50
2018-10-05T14:08:09.604Z,19.50
2018-10-05T14:10:38.145Z,19.50
2018-10-05T14:13:06.329Z,19.50
2018-10-05T14:15:34.698Z,19.50
2018-10-05T14:18:03.160Z,19.50
2018-10-05T14:20:31.593Z,19.50
2018-10-05T14:22:59.943Z,19.50
2018-10-05T14:25:28.387Z,19.50
2018-10-05T14:27:56.668Z,19.60
2018-10-05T14:30:25.065Z,19.60
2018-10-05T14:32:53.404Z,19.60
2018-10-05T14:35:21.776Z,19.70
2018-10-05T14:37:50.128Z,19.70
2018-10-05T14:40:18.521Z,19.70
2018-10-05T14:42:46.872Z,19.70
2018-10-05T14:45:15.256Z,19.70
2018-10-05T14:47:43.618Z,19.70
2018-10-05T14:50:12.010Z,19.80
2018-10-05T14:52:40.361Z,19.80
2018-10-05T14:55:08.716Z,19.80
2018-10-05T14:57:37.093Z,19.80
2018-10-05T15:00:05.868Z,19.80
2018-10-05T15:02:34.270Z,19.80
2018-10-05T15:05:02.629Z,19.80
2018-10-05T15:07:31.005Z,19.80
2018-10-05T15:09:59.344Z,19.80
2018-10-05T15:12:27.720Z,19.80
2018-10-05T15:14:56.088Z,19.80
2018-10-05T15:17:24.474Z,19.80
2018-10-05T15:19:52.828Z,19.80
2018-10-05T15:22:21.199Z,19.80
2018-10-05T15:24:49.825Z,19.80
2018-10-05T15:27:18.192Z,19.80
2018-10-05T15:29:46.558Z,19.70
2018-10-05T15:32:14.949Z,19.70
2018-10-05T15:34:43.301Z,19.70
2018-10-05T15:37:12.173Z,19.70
2018-10-05T15:39:40.524Z,19.70
2018-10-05T15:42:08.893Z,19.70
2018-10-05T15:44:37.239Z,19.60
2018-10-05T15:47:07.716Z,19.60
2018-10-05T15:49:36.696Z,19.60
2018-10-05T15:52:05.114Z,19.50
2018-10-05T15:54:33.468Z,19.50
2018-10-05T15:57:01.979Z,19.40
2018-10-05T15:59:31.140Z,19.40
2018-10-05T16:01:59.524Z,19.30
2018-10-05T16:04:28.313Z,19.30
2018-10-05T16:06:56.709Z,19.30
2018-10-05T16:09:25.063Z,19.20
2018-10-05T16:11:53.493Z,19.20
2018-10-05T16:14:21.949Z,19.10
2018-10-05T16:16:50.352Z,19.10
2018-10-05T16:19:18.698Z,19.00
2018-10-05T16:21:47.076Z,19.00
2018-10-05T16:24:22.333Z,19.00
2018-10-05T16:26:50.746Z,18.90
2018-10-05T16:29:19.096Z,18.90
2018-10-05T16:31:47.476Z,18.80
2018-10-05T16:34:15.836Z,18.80
2018-10-05T16:36:44.232Z,18.70
2018-10-05T16:39:12.618Z,18.60
2018-10-05T16:41:40.992Z,18.50
2018-10-05T16:44:09.352Z,18.40
2018-10-05T16:46:38.489Z,18.30
2018-10-05T16:49:08.163Z,18.20
2018-10-05T16:51:36.609Z,18.10
2018-10-05T16:54:04.945Z,18.00
2018-10-05T16:56:33.304Z,17.80
2018-10-05T16:59:01.709Z,17.70
2018-10-05T17:01:30.085Z,17.60
2018-10-05T17:03:58.659Z,17.50
2018-10-05T17:06:26.935Z,17.40
2018-10-05T17:09:00.579Z,17.30
2018-10-05T17:11:28.912Z,17.20
2018-10-05T17:13:57.309Z,17.00
2018-10-05T17:16:25.636Z,16.90
2018-10-05T17:18:54.020Z,16.80
2018-10-05T17:21:22.521Z,16.70
2018-10-05T17:23:50.962Z,16.60
2018-10-05T17:26:19.330Z,16.50
2018-10-05T17:28:47.840Z,16.40
2018-10-05T17:31:16.216Z,16.40
2018-10-05T17:33:44.593Z,16.30
2018-10-05T17:36:12.929Z,16.20
2018-10-05T17:38:41.299Z,16.10
2018-10-05T17:41:09.736Z,16.00
2018-10-05T17:43:38.244Z,15.90
2018-10-05T17:46:07.577Z,15.80
2018-10-05T17:48:35.948Z,15.70
2018-10-05T17:51:04.304Z,15.60
2018-10-05T17:53:32.686Z,15.50
2018-10-05T17:56:01.112Z,15.50
2018-10-05T17:58:29.459Z,15.30
2018-10-05T18:00:57.808Z,15.30
2018-10-05T18:03:26.196Z,15.20
2018-10-05T18:05:54.540Z,15.10
2018-10-05T18:08:22.955Z,15.00
2018-10-05T18:10:51.258Z,14.90
2018-10-05T18:13:19.632Z,14.90
2018-10-05T18:15:48.002Z,14.80
2018-10-05T18:18:16.364Z,14.70
2018-10-05T18:20:44.690Z,14.60
2018-10-05T18:23:13.079Z,14.60
2018-10-05T18:25:41.409Z,14.50
2018-10-05T18:28:09.797Z,14.50
2018-10-05T18:30:38.132Z,14.40
2018-10-05T18:33:06.504Z,14.30
2018-10-05T18:35:34.846Z,14.20
2018-10-05T18:38:03.220Z,14.20
2018-10-05T18:40:32.072Z,14.10
2018-10-05T18:43:00.513Z,14.00
2018-10-05T18:45:28.912Z,14.00
2018-10-05T18:47:57.343Z,13.90
2018-10-05T18:50:25.716Z,13.80
2018-10-05T18:52:54.539Z,13.80
2018-10-05T18:55:24.149Z,13.80
2018-10-05T18:57:52.990Z,13.70
2018-10-05T19:00:21.635Z,13.70
2018-10-05T19:02:50.332Z,13.60
2018-10-05T19:05:18.812Z,13.50
2018-10-05T19:07:47.474Z,13.40
2018-10-05T19:10:16.563Z,13.40
2018-10-05T19:12:45.528Z,13.30
2018-10-05T19:15:14.401Z,13.10
2018-10-05T19:17:43.175Z,13.00
2018-10-05T19:20:11.965Z,12.90
2018-10-05T19:22:40.763Z,12.90
2018-10-05T19:25:09.968Z,12.80
2018-10-05T19:27:38.686Z,12.80
2018-10-05T19:30:08.044Z,12.70
2018-10-05T19:32:36.880Z,12.60
2018-10-05T19:35:06.144Z,12.60
2018-10-05T19:37:34.719Z,12.60
2018-10-05T19:40:03.864Z,12.50
2018-10-05T19:42:33.261Z,12.50
2018-10-05T19:45:02.291Z,12.40
2018-10-05T19:47:30.888Z,12.40
2018-10-05T19:49:59.993Z,12.30
2018-10-05T19:52:29.392Z,12.30
2018-10-05T19:54:58.725Z,12.20
2018-10-05T19:57:34.637Z,12.10
2018-10-05T20:00:03.981Z,12.10
2018-10-05T20:02:33.192Z,12.00
2018-10-05T20:05:02.245Z,12.00
2018-10-05T20:07:31.161Z,12.00
2018-10-05T20:10:00.495Z,11.90
2018-10-05T20:12:30.549Z,11.90
2018-10-05T20:14:59.613Z,11.90
2018-10-05T20:17:28.934Z,11.90
2018-10-05T20:19:58.046Z,11.80
2018-10-05T20:22:26.904Z,11.90
2018-10-05T20:24:56.293Z,11.80
2018-10-05T20:27:24.721Z,11.80
2018-10-05T20:29:53.855Z,11.80
2018-10-05T20:32:22.290Z,11.70
2018-10-05T20:34:50.753Z,11.70
2018-10-05T20:37:19.217Z,11.70
2018-10-05T20:39:48.362Z,11.70
2018-10-05T20:42:18.071Z,11.70
2018-10-05T20:44:47.374Z,11.60
2018-10-05T20:47:16.677Z,11.60
2018-10-05T20:49:46.228Z,11.60
2018-10-05T20:52:14.836Z,11.60
2018-10-05T20:54:43.905Z,11.60
2018-10-05T20:57:12.544Z,11.60
2018-10-05T20:59:41.945Z,11.60
2018-10-05T21:02:10.384Z,11.60
2018-10-05T21:04:38.844Z,11.60
2018-10-05T21:07:07.352Z,11.60
2018-10-05T21:09:35.830Z,11.60
2018-10-05T21:12:04.523Z,11.50
2018-10-05T21:14:32.961Z,11.50
2018-10-05T21:17:01.380Z,11.50
2018-10-05T21:19:29.749Z,11.50
2018-10-05T21:21:58.106Z,11.40
2018-10-05T21:24:26.566Z,11.30
2018-10-05T21:26:54.981Z,11.30
2018-10-05T21:29:23.484Z,11.30
2018-10-05T21:31:51.840Z,11.30
2018-10-05T21:34:20.273Z,11.30
2018-10-05T21:36:48.656Z,11.30
2018-10-05T21:39:17.012Z,11.20
2018-10-05T21:41:45.417Z,11.20
2018-10-05T21:44:14.109Z,11.20
2018-10-05T21:46:42.473Z,11.20
2018-10-05T21:49:10.837Z,11.30
2018-10-05T21:51:39.211Z,11.30
2018-10-05T21:54:07.644Z,11.40
2018-10-05T21:56:36.027Z,11.40
2018-10-05T21:59:04.379Z,11.50
2018-10-05T22:01:32.736Z,11.50
2018-10-05T22:04:01.069Z,11.50
2018-10-05T22:06:29.441Z,11.60
2018-10-05T22:08:57.772Z,11.60
2018-10-05T22:11:26.136Z,11.60
2018-10-05T22:13:54.465Z,11.70
2018-10-05T22:16:22.961Z,11.70
2018-10-05T22:18:51.299Z,11.70
2018-10-05T22:21:19.657Z,11.80
2018-10-05T22:23:49.651Z,11.90
2018-10-05T22:26:18.146Z,11.90
2018-10-05T22:28:46.474Z,11.90
2018-10-05T22:31:14.901Z,11.90
2018-10-05T22:33:43.236Z,12.00
2018-10-05T22:36:11.633Z,12.00
2018-10-05T22:38:39.960Z,11.90
2018-10-05T22:41:08.335Z,11.90
2018-10-05T22:43:36.665Z,11.80
2018-10-05T22:46:05.040Z,11.80
2018-10-05T22:48:33.424Z,11.80
2018-10-05T22:51:01.798Z,11.80
2018-10-05T22:53:30.145Z,11.70
2018-10-05T22:55:58.518Z,11.70
2018-10-05T22:58:26.852Z,11.70
2018-10-05T23:00:55.219Z,11.60
2018-10-05T23:03:23.562Z,11.60
2018-10-05T23:05:51.916Z,11.60
2018-10-05T23:08:20.246Z,11.50
2018-10-05T23:10:48.617Z,11.50
2018-10-05T23:13:16.952Z,11.50
2018-10-05T23:15:45.316Z,11.50
2018-10-05T23:18:13.749Z,11.40
2018-10-05T23:20:42.108Z,11.40
2018-10-05T23:23:10.590Z,11.30
2018-10-05T23:25:38.972Z,11.20
2018-10-05T23:28:07.318Z,11.20
2018-10-05T23:30:35.647Z,11.10
2018-10-05T23:33:04.029Z,11.10
2018-10-05T23:35:32.384Z,11.10
2018-10-05T23:38:00.793Z,11.10
2018-10-05T23:40:29.139Z,11.00
2018-10-05T23:42:57.512Z,11.00
2018-10-05T23:45:25.856Z,10.90
2018-10-05T23:47:54.226Z,10.90
2018-10-05T23:50:22.688Z,10.80
2018-10-05T23:52:51.787Z,10.70
2018-10-05T23:55:20.484Z,10.70
2018-10-05T23:57:49.256Z,10.60
